^^

..:: Storico WU ::..




Lo storico viene creato da WUnderground con i dati che la stazione Meteomincio invia al loro server. L' aggiornamento viene fatto ogni 5 minuti circa, tuttavia possono esserci intervalli pi¨ ampi a causa di errori, interruzioni di servizio o problemi nell' invio tramite FTP.


Storico stazione MeteoMincio
 
Giorno Sommario per Maggio 23, 2024 Unità:  Metrico    Inglese   Entrambi
Giorno Settimana Mese Anno
  Corrente: Max: Min: Media:
Temperatura: 15.5 °C 23.1 °C 11.9 °C 16.1 °C
Dew Point: 13.7 °C 17.7 °C 11.5 °C 14.1 °C
Umidità: 89.3% 98% 65.3% 89%
Velocità vento: 3.1km/h 27.9km/h 0km/h 4km/h
Raffica: 5.6km/h 45.1km/h - -
DirezioneNW - - South
Pressione: 1016.0 hPa 1016.6 hPa 1014.3 hPa -
Precipitazioni: 20.8 mm      
 
 
Tabulato Dati per Maggio 23, 2024
Ora Temperatura Dew Point Pressione Direzione Velocità vento Raffica Umidità Intensità pioggia (oraria) Info solare Situazione
00:04 14.2 °C 13.7 °C 1014.3 hPa Calm   6.4 km/h 97% 0.0 mm 0 W/m2
00:09 14.1 °C 13.6 °C 1014.3 hPa NE 2.1 km/h 5.6 km/h 96.7% 0.0 mm 0 W/m2
00:14 13.9 °C 13.3 °C 1014.4 hPa NE 2.5 km/h 5.6 km/h 96.2% 0.0 mm 0 W/m2
00:19 13.8 °C 13.3 °C 1014.4 hPa NE 4.6 km/h 6.4 km/h 96.2% 0.0 mm 0 W/m2
00:24 13.8 °C 13.3 °C 1014.4 hPa NE 4.4 km/h 8 km/h 96.7% 0.0 mm 0 W/m2
00:29 13.8 °C 13.3 °C 1014.4 hPa ENE 3.6 km/h 8 km/h 97% 0.0 mm 0 W/m2
00:34 13.7 °C 13.3 °C 1014.4 hPa ENE 2.7 km/h 8 km/h 97% 0.0 mm 0 W/m2
00:39 13.6 °C 13 °C 1014.4 hPa NE 3.4 km/h 6.4 km/h 96% 0.0 mm 0 W/m2
00:44 13.6 °C 13.2 °C 1014.4 hPa NE 5.2 km/h 8 km/h 97% 0.0 mm 0 W/m2
00:49 13.6 °C 13.2 °C 1014.4 hPa NE 4.8 km/h 8 km/h 97% 0.0 mm 0 W/m2
00:54 13.6 °C 13.2 °C 1014.4 hPa NE 5.4 km/h 8 km/h 97% 0.0 mm 0 W/m2
00:59 13.6 °C 13.2 °C 1014.4 hPa NE 5.3 km/h 8 km/h 97% 0.0 mm 0 W/m2
01:04 13.6 °C 13.1 °C 1014.4 hPa NE 5.1 km/h 8 km/h 97% 0.0 mm 0 W/m2
01:09 13.5 °C 13.1 °C 1014.3 hPa NE 4.2 km/h 8 km/h 97% 0.0 mm 0 W/m2
01:14 13.4 °C 13 °C 1014.4 hPa NE 3.1 km/h 6.4 km/h 97% 0.0 mm 0 W/m2
01:19 13.4 °C 13 °C 1014.4 hPa NNE 4 km/h 6.4 km/h 97% 0.0 mm 0 W/m2
01:24 13.4 °C 13 °C 1014.4 hPa NNE 4 km/h 6.4 km/h 97% 0.0 mm 0 W/m2
01:29 13.4 °C 13 °C 1014.4 hPa NNE 3 km/h 6.4 km/h 97% 0.0 mm 0 W/m2
01:34 13.4 °C 13 °C 1014.5 hPa NNE 1.6 km/h 4.8 km/h 97% 0.0 mm 0 W/m2
01:39 13.4 °C 13 °C 1014.5 hPa NNE 1.2 km/h 3.7 km/h 97% 0.0 mm 0 W/m2
01:44 13.4 °C 13 °C 1014.6 hPa NNE 0.9 km/h 3.7 km/h 97% 0.0 mm 0 W/m2
01:49 13.3 °C 12.9 °C 1014.6 hPa NNE 2.3 km/h 3.7 km/h 97% 0.0 mm 0 W/m2
01:54 13.3 °C 12.9 °C 1014.5 hPa NNE 1.3 km/h 3.7 km/h 97% 0.0 mm 0 W/m2
01:59 13.4 °C 12.9 °C 1014.5 hPa NNE 0.1 km/h 3.2 km/h 97% 0.0 mm 0 W/m2
02:04 13.2 °C 12.8 °C 1014.6 hPa NNE 0.6 km/h 1.9 km/h 97% 0.0 mm 0 W/m2
02:09 13.2 °C 12.8 °C 1014.6 hPa NNE 0.4 km/h 1.9 km/h 97% 0.0 mm 0 W/m2
02:14 13.2 °C 12.8 °C 1014.5 hPa NNE 0.2 km/h 1.9 km/h 97% 0.0 mm 0 W/m2
02:19 13.2 °C 12.8 °C 1014.5 hPa NNE 1 km/h 1.9 km/h 97% 0.0 mm 0 W/m2
02:24 13.1 °C 12.7 °C 1014.4 hPa Calm   1.9 km/h 97% 0.0 mm 0 W/m2
02:29 13.1 °C 12.7 °C 1014.4 hPa NNE 0.1 km/h 1.6 km/h 97% 0.0 mm 0 W/m2
02:34 13.1 °C 12.6 °C 1014.4 hPa NNE 0.9 km/h 3.7 km/h 97% 0.0 mm 0 W/m2
02:39 13 °C 12.5 °C 1014.4 hPa NNE 0.2 km/h 3.2 km/h 97% 0.0 mm 0 W/m2
02:44 12.9 °C 12.4 °C 1014.5 hPa Calm   1.6 km/h 97% 0.0 mm 0 W/m2
02:49 12.8 °C 12.4 °C 1014.5 hPa Calm   1.9 km/h 97% 0.0 mm 0 W/m2
02:54 12.8 °C 12.3 °C 1014.5 hPa Calm   1.6 km/h 97% 0.0 mm 0 W/m2
02:59 12.8 °C 12.4 °C 1014.5 hPa NNE 0.7 km/h 1.9 km/h 97% 0.0 mm 0 W/m2
03:04 12.8 °C 12.3 °C 1014.5 hPa NNE 0.9 km/h 1.9 km/h 97% 0.0 mm 0 W/m2
03:09 12.7 °C 12.3 °C 1014.5 hPa NNE 1 km/h 1.9 km/h 97% 0.0 mm 0 W/m2
03:14 12.7 °C 12.2 °C 1014.5 hPa NNE 0.1 km/h 1.9 km/h 97% 0.0 mm 0 W/m2
03:19 12.5 °C 12.1 °C 1014.5 hPa Calm   1.6 km/h 97% 0.0 mm 0 W/m2
03:24 12.4 °C 11.9 °C 1014.6 hPa Calm     97% 0.0 mm 0 W/m2
03:29 12.4 °C 12 °C 1014.7 hPa Calm     97% 0.0 mm 0 W/m2
03:34 12.4 °C 12 °C 1014.8 hPa Calm     97% 0.0 mm 0 W/m2
03:39 12.5 °C 12 °C 1014.7 hPa Calm     97% 0.0 mm 0 W/m2
03:44 12.4 °C 12 °C 1014.8 hPa Calm     97% 0.0 mm 0 W/m2
03:49 12.3 °C 11.9 °C 1014.8 hPa Calm     97% 0.0 mm 0 W/m2
03:54 12.3 °C 11.9 °C 1014.8 hPa Calm     97% 0.0 mm 0 W/m2
03:59 12.3 °C 11.9 °C 1014.9 hPa Calm     97% 0.0 mm 0 W/m2
04:04 12.4 °C 11.9 °C 1015.0 hPa Calm     97% 0.0 mm 0 W/m2
04:09 12.3 °C 11.9 °C 1015.0 hPa Calm     97% 0.0 mm 0 W/m2
04:14 12.3 °C 11.9 °C 1015.1 hPa Calm     97% 0.0 mm 0 W/m2
04:19 12.3 °C 11.9 °C 1015.1 hPa Calm     97% 0.0 mm 0 W/m2
04:24 12.3 °C 11.8 °C 1015.1 hPa Calm     97% 0.0 mm 0 W/m2
04:29 12.2 °C 11.8 °C 1015.1 hPa Calm     97% 0.0 mm 0 W/m2
04:34 12.2 °C 11.7 °C 1015.1 hPa Calm     97% 0.0 mm 0 W/m2
04:39 12.2 °C 11.7 °C 1015.1 hPa Calm     97% 0.0 mm 0 W/m2
04:44 12.1 °C 11.7 °C 1015.1 hPa Calm     97% 0.0 mm 0 W/m2
04:49 12.1 °C 11.6 °C 1015.0 hPa Calm     97% 0.2 mm 0 W/m2
04:54 12 °C 11.6 °C 1015.0 hPa Calm     97% 0.2 mm 0 W/m2
04:59 12.1 °C 11.6 °C 1015.0 hPa Calm     97% 0.2 mm 0 W/m2
05:04 12.2 °C 11.7 °C 1015.1 hPa Calm     97% 0.2 mm 0 W/m2
05:09 12.1 °C 11.7 °C 1015.1 hPa Calm     97% 0.2 mm 0 W/m2
05:14 12.1 °C 11.7 °C 1015.1 hPa WSW 0.4 km/h 3.7 km/h 97% 0.2 mm 0 W/m2
05:19 12.1 °C 11.6 °C 1015.0 hPa WSW 2.6 km/h 4.8 km/h 97% 0.2 mm 0 W/m2
05:24 12 °C 11.5 °C 1015.0 hPa West 1.4 km/h 5.6 km/h 97% 0.2 mm 0 W/m2
05:29 11.9 °C 11.5 °C 1015.0 hPa West 0.2 km/h 3.2 km/h 97% 0.2 mm 0 W/m2
05:34 12 °C 11.7 °C 1014.9 hPa Calm   1.9 km/h 97.5% 0.2 mm 0 W/m2
05:39 12 °C 11.6 °C 1014.9 hPa Calm   1.6 km/h 97% 0.2 mm 0 W/m2
05:44 12 °C 11.6 °C 1014.9 hPa Calm     97% 0.2 mm 5 W/m2
05:49 12.1 °C 11.7 °C 1015.0 hPa SW 0.4 km/h 3.2 km/h 97.5% 0.2 mm 7 W/m2
05:54 12.1 °C 11.6 °C 1015.1 hPa SW 0.9 km/h 3.7 km/h 97% 0.0 mm 11 W/m2
05:59 12 °C 11.6 °C 1015.2 hPa Calm   3.2 km/h 97% 0.0 mm 16 W/m2
06:04 12 °C 11.7 °C 1015.2 hPa Calm     97.7% 0.0 mm 21 W/m2
06:09 12.1 °C 11.6 °C 1015.3 hPa Calm     97% 0.0 mm 26 W/m2
06:14 12.1 °C 11.7 °C 1015.4 hPa Calm     97% 0.0 mm 30 W/m2
06:19 12.1 °C 11.7 °C 1015.4 hPa SW 1.7 km/h 5.6 km/h 97% 0.0 mm 39 W/m2
06:24 12.1 °C 11.7 °C 1015.6 hPa SSW 2.6 km/h 5.6 km/h 97% 0.0 mm 37 W/m2
06:29 12.1 °C 11.7 °C 1015.6 hPa SSW 2.9 km/h 5.6 km/h 97% 0.0 mm 39 W/m2
06:34 12.2 °C 11.7 °C 1015.6 hPa SSW 1.1 km/h 4.8 km/h 97% 0.0 mm 47 W/m2
06:39 12.2 °C 11.8 °C 1015.5 hPa SSW 0.5 km/h 3.7 km/h 97% 0.0 mm 67 W/m2
06:44 12.2 °C 11.8 °C 1015.5 hPa SW 1.4 km/h 3.7 km/h 97% 0.0 mm 79 W/m2
06:49 12.3 °C 11.8 °C 1015.5 hPa SW 0.6 km/h 3.7 km/h 97% 0.0 mm 90 W/m2
06:54 12.3 °C 11.9 °C 1015.5 hPa Calm   3.2 km/h 97% 0.0 mm 88 W/m2
06:59 12.5 °C 12.1 °C 1015.4 hPa Calm   1.6 km/h 97.7% 0.0 mm 111 W/m2
07:04 12.7 °C 12.4 °C 1015.4 hPa Calm   1.9 km/h 97.6% 0.0 mm 155 W/m2
07:09 13.1 °C 12.7 °C 1015.5 hPa ENE 0.1 km/h 1.9 km/h 98% 0.0 mm 160 W/m2
07:14 13.4 °C 13.1 °C 1015.4 hPa NNE 0.3 km/h 1.9 km/h 98% 0.0 mm 148 W/m2
07:19 13.6 °C 13.3 °C 1015.4 hPa North 0.6 km/h 1.9 km/h 98% 0.0 mm 148 W/m2
07:24 13.6 °C 13.2 °C 1015.4 hPa North 0.2 km/h 3.2 km/h 98% 0.0 mm 42 W/m2
07:29 13.6 °C 13.2 °C 1015.4 hPa North 0.9 km/h 3.7 km/h 98% 0.0 mm 72 W/m2
07:34 13.6 °C 13.3 °C 1015.3 hPa Calm   3.2 km/h 98% 0.0 mm 127 W/m2
07:39 13.9 °C 13.6 °C 1015.4 hPa Calm     98% 0.0 mm 253 W/m2
07:44 14.1 °C 13.8 °C 1015.5 hPa Calm     98% 0.0 mm 309 W/m2
07:49 14.2 °C 13.9 °C 1015.5 hPa Calm     98% 0.0 mm 297 W/m2
07:54 14.2 °C 13.9 °C 1015.5 hPa Calm     98% 0.0 mm 158 W/m2
07:59 14.4 °C 14 °C 1015.5 hPa ESE 0.7 km/h 5.6 km/h 98% 0.0 mm 158 W/m2
08:04 14.4 °C 14.1 °C 1015.5 hPa ESE 3.2 km/h 5.6 km/h 98% 0.0 mm 127 W/m2
08:09 14.5 °C 14.2 °C 1015.6 hPa East 2.5 km/h 5.6 km/h 98% 0.0 mm 111 W/m2
08:14 14.5 °C 14.1 °C 1015.6 hPa ESE 2.2 km/h 5.6 km/h 97.5% 0.0 mm 111 W/m2
08:19 14.7 °C 14.4 °C 1015.6 hPa East 2.2 km/h 4.8 km/h 97.9% 0.0 mm 350 W/m2
08:24 15.1 °C 14.8 °C 1015.7 hPa East 2.6 km/h 5.6 km/h 98% 0.0 mm 401 W/m2
08:29 15.3 °C 15 °C 1015.8 hPa ESE 2.2 km/h 5.6 km/h 98% 0.0 mm 380 W/m2
08:34 15.4 °C 15 °C 1015.8 hPa ESE 3.4 km/h 6.4 km/h 97.7% 0.0 mm 274 W/m2
08:39 15.4 °C 14.9 °C 1015.8 hPa ESE 3.4 km/h 6.4 km/h 97% 0.0 mm 388 W/m2
08:44 15.6 °C 15.1 °C 1015.8 hPa ESE 2.9 km/h 5.6 km/h 97% 0.0 mm 388 W/m2
08:49 15.7 °C 15.2 °C 1015.8 hPa SE 4.2 km/h 6.4 km/h 96.8% 0.0 mm 492 W/m2
08:54 16 °C 15.5 °C 1015.8 hPa East 3.8 km/h 6.4 km/h 96.7% 0.0 mm 439 W/m2
08:59 16.2 °C 15.6 °C 1015.8 hPa East 1 km/h 6.4 km/h 96% 0.0 mm 387 W/m2
09:04 16.4 °C 15.6 °C 1015.8 hPa ESE 1.6 km/h 5.6 km/h 95% 0.0 mm 364 W/m2
09:09 16.5 °C 15.6 °C 1015.8 hPa ESE 1.9 km/h 5.6 km/h 94% 0.0 mm 271 W/m2
09:14 16.6 °C 15.6 °C 1015.8 hPa ESE 2.5 km/h 5.6 km/h 94% 0.0 mm 288 W/m2
09:19 16.7 °C 15.7 °C 1015.8 hPa East 3.8 km/h 8 km/h 94% 0.0 mm 355 W/m2
09:24 16.9 °C 15.8 °C 1015.8 hPa East 1.7 km/h 8 km/h 93.4% 0.0 mm 599 W/m2
09:29 17.1 °C 15.8 °C 1015.8 hPa ENE 1.2 km/h 5.6 km/h 92.4% 0.0 mm 708 W/m2
09:34 17.5 °C 16.2 °C 1015.7 hPa East 2.6 km/h 8 km/h 92.3% 0.0 mm 708 W/m2
09:39 17.4 °C 15.9 °C 1015.7 hPa East 3 km/h 8 km/h 91.2% 0.0 mm 309 W/m2
09:44 17.2 °C 15.7 °C 1015.7 hPa East 2.1 km/h 8 km/h 91% 0.0 mm 241 W/m2
09:49 17.2 °C 15.8 °C 1015.7 hPa East 3.1 km/h 5.6 km/h 91.6% 0.0 mm 258 W/m2
09:54 17.2 °C 15.7 °C 1015.7 hPa ESE 3.8 km/h 8 km/h 91.1% 0.0 mm 652 W/m2
09:59 17.6 °C 16.2 °C 1015.7 hPa East 3.8 km/h 8 km/h 91.2% 0.0 mm 652 W/m2
10:04 17.9 °C 16.3 °C 1015.7 hPa ENE 2.9 km/h 8 km/h 90.2% 0.0 mm 629 W/m2
10:09 18.1 °C 16 °C 1015.7 hPa ESE 3.7 km/h 9.7 km/h 88% 0.0 mm 642 W/m2
10:14 18.4 °C 16.3 °C 1015.7 hPa East 2.7 km/h 9.7 km/h 87.8% 0.0 mm 677 W/m2
10:19 18.6 °C 16.2 °C 1015.8 hPa East 4.2 km/h 8 km/h 86% 0.0 mm 671 W/m2
10:24 18.6 °C 16.2 °C 1015.7 hPa ENE 1.8 km/h 8 km/h 85.5% 0.0 mm 677 W/m2
10:29 18.9 °C 16.6 °C 1015.6 hPa East 2 km/h 8 km/h 86% 0.0 mm 677 W/m2
10:34 19.1 °C 16.4 °C 1015.7 hPa ENE 3.4 km/h 8 km/h 84.6% 0.0 mm 722 W/m2
10:39 19.3 °C 16.7 °C 1015.7 hPa NNW 1.7 km/h 6.4 km/h 84.7% 0.0 mm 724 W/m2
10:44 19.4 °C 16.5 °C 1015.7 hPa North 2.4 km/h 6.4 km/h 83.7% 0.0 mm 415 W/m2
10:49 19.2 °C 16.3 °C 1015.6 hPa NNW 1.6 km/h 6.4 km/h 83.6% 0.0 mm 724 W/m2
10:54 19.5 °C 17 °C 1015.6 hPa NE 5 km/h 8 km/h 86% 0.0 mm 765 W/m2
10:59 19.9 °C 17 °C 1015.7 hPa ENE 3.4 km/h 8 km/h 83.5% 0.0 mm 795 W/m2
11:04 19.8 °C 16.8 °C 1015.7 hPa SSW 5.4 km/h 8 km/h 83% 0.0 mm 793 W/m2
11:09 19.9 °C 16.9 °C 1015.7 hPa SW 4.5 km/h 8 km/h 83.1% 0.0 mm 784 W/m2
11:14 20 °C 17 °C 1015.7 hPa South 2.4 km/h 8 km/h 82.8% 0.0 mm 868 W/m2
11:19 20.2 °C 16.8 °C 1015.7 hPa SSE 2.2 km/h 6.4 km/h 81.1% 0.0 mm 879 W/m2
11:24 20.4 °C 17 °C 1015.7 hPa ESE 3.7 km/h 8 km/h 80.6% 0.0 mm 904 W/m2
11:29 20.7 °C 17.2 °C 1015.8 hPa SSW 3.4 km/h 9.7 km/h 80.1% 0.0 mm 926 W/m2
11:34 20.3 °C 16.6 °C 1015.8 hPa SW 2.8 km/h 9.7 km/h 79.3% 0.0 mm 341 W/m2
11:39 20.2 °C 16.9 °C 1015.7 hPa WSW 2.6 km/h 6.4 km/h 81.2% 0.0 mm 831 W/m2
11:44 20.7 °C 17.2 °C 1015.7 hPa SSW 1.9 km/h 6.4 km/h 80.4% 0.0 mm 846 W/m2
11:49 21 °C 17.3 °C 1015.7 hPa SSW 2.5 km/h 6.4 km/h 79.5% 0.0 mm 828 W/m2
11:54 20.9 °C 17 °C 1015.7 hPa SSW 3 km/h 6.4 km/h 78.4% 0.0 mm 835 W/m2
11:59 21.1 °C 17.1 °C 1015.7 hPa ENE 3.8 km/h 8 km/h 78% 0.0 mm 844 W/m2
12:04 21.4 °C 17.4 °C 1015.6 hPa East 5.4 km/h 11.3 km/h 78.2% 0.0 mm 853 W/m2
12:09 21.4 °C 17.3 °C 1015.6 hPa East 5.5 km/h 11.3 km/h 77.9% 0.0 mm 868 W/m2
12:14 21.7 °C 17.7 °C 1015.5 hPa ESE 4.4 km/h 11.3 km/h 78% 0.0 mm 868 W/m2
12:19 21.8 °C 17.6 °C 1015.4 hPa East 5 km/h 9.7 km/h 77.1% 0.0 mm 861 W/m2
12:24 22 °C 17.4 °C 1015.4 hPa SSE 3.5 km/h 9.7 km/h 75.5% 0.0 mm 865 W/m2
12:29 22.2 °C 16.6 °C 1015.4 hPa South 4.1 km/h 9.7 km/h 70.5% 0.0 mm 886 W/m2
12:34 22.2 °C 16.1 °C 1015.4 hPa West 5 km/h 9.7 km/h 68.4% 0.0 mm 902 W/m2
12:39 22.2 °C 16.3 °C 1015.4 hPa West 4.9 km/h 9.7 km/h 69.5% 0.0 mm 949 W/m2
12:44 22.4 °C 16.6 °C 1015.3 hPa WNW 3.9 km/h 9.7 km/h 69.6% 0.0 mm 967 W/m2
12:49 22.4 °C 16.3 °C 1015.3 hPa SW 4.7 km/h 9.7 km/h 68.3% 0.0 mm 954 W/m2
12:54 22.3 °C 16.3 °C 1015.2 hPa SSW 2.9 km/h 8 km/h 68.8% 0.0 mm 926 W/m2
12:59 22.5 °C 16.3 °C 1015.1 hPa SSW 5.4 km/h 11.3 km/h 68.4% 0.0 mm 939 W/m2
13:04 22.5 °C 16.1 °C 1015.1 hPa SSE 4.3 km/h 11.3 km/h 67.3% 0.0 mm 972 W/m2
13:09 22.7 °C 16.2 °C 1015.0 hPa East 4.6 km/h 11.3 km/h 67.1% 0.0 mm 981 W/m2
13:14 23 °C 16.4 °C 1015.0 hPa ESE 5.2 km/h 11.3 km/h 66.6% 0.0 mm 1004 W/m2
13:19 22.7 °C 15.9 °C 1015.0 hPa SSE 6.5 km/h 11.3 km/h 65.4% 0.0 mm 965 W/m2
13:24 22.5 °C 15.7 °C 1014.9 hPa South 5.1 km/h 11.3 km/h 65.5% 0.0 mm 1007 W/m2
13:29 22.6 °C 16 °C 1014.9 hPa SSW 3.9 km/h 12.9 km/h 66.5% 0.0 mm 1007 W/m2
13:34 23 °C 16.4 °C 1014.8 hPa SSE 7.1 km/h 14.8 km/h 66.3% 0.0 mm 1014 W/m2
13:39 22.7 °C 15.9 °C 1014.8 hPa South 7.4 km/h 14.8 km/h 65.3% 0.0 mm 997 W/m2
13:44 22.2 °C 15.9 °C 1014.7 hPa SSE 3.4 km/h 14.5 km/h 67.2% 0.0 mm 267 W/m2
13:49 22.1 °C 15.8 °C 1014.7 hPa SE 3.7 km/h 9.7 km/h 67.3% 0.0 mm 316 W/m2
13:54 22.3 °C 16.2 °C 1014.7 hPa South 3.5 km/h 8 km/h 68.5% 0.0 mm 343 W/m2
13:59 22.6 °C 16.3 °C 1014.6 hPa SW 2.4 km/h 8 km/h 67.6% 0.0 mm 1056 W/m2
14:04 23.1 °C 16.3 °C 1014.6 hPa WSW 4.1 km/h 8 km/h 65.6% 0.0 mm 1027 W/m2
14:09 22.9 °C 16 °C 1014.6 hPa South 5.8 km/h 13 km/h 65.3% 0.0 mm 986 W/m2
14:14 22.4 °C 15.7 °C 1014.6 hPa SSE 4.4 km/h 13 km/h 65.8% 0.0 mm 209 W/m2
14:19 22.2 °C 15.7 °C 1014.6 hPa SSW 4.1 km/h 12.9 km/h 66.8% 0.0 mm 221 W/m2
14:24 22.1 °C 15.9 °C 1014.6 hPa South 2.9 km/h 8 km/h 67.8% 0.0 mm 220 W/m2
14:29 22 °C 16 °C 1014.5 hPa South 2.9 km/h 8 km/h 68.7% 0.0 mm 200 W/m2
14:34 21.8 °C 16 °C 1014.4 hPa ENE 2.6 km/h 8 km/h 69.5% 0.0 mm 171 W/m2
14:39 21.7 °C 15.7 °C 1014.4 hPa ESE 1.9 km/h 5.6 km/h 68.7% 0.0 mm 132 W/m2
14:44 21.6 °C 15.6 °C 1014.3 hPa ESE 1.3 km/h 4.8 km/h 68.7% 0.0 mm 95 W/m2
14:49 21.5 °C 15.6 °C 1014.6 hPa SE 1.6 km/h 3.7 km/h 69.1% 0.0 mm 70 W/m2
14:54 21.5 °C 15.4 °C 1014.9 hPa SW 1.5 km/h 4.8 km/h 68.4% 0.0 mm 37 W/m2
14:59 21.5 °C 15.8 °C 1015.7 hPa SW 10.8 km/h 37 km/h 69.8% 0.0 mm 23 W/m2
15:04 20.2 °C 15 °C 1016.0 hPa SW 27.9 km/h 45.1 km/h 72% 0.2 mm 12 W/m2
15:09 17.3 °C 13.4 °C 1016.3 hPa SW 21.4 km/h 45.1 km/h 78% 2.2 mm 0 W/m2
15:14 15.2 °C 12.2 °C 1016.6 hPa WSW 18.4 km/h 40.2 km/h 82.7% 10.4 mm 0 W/m2
15:19 14.3 °C 12 °C 1016.5 hPa WNW 17.5 km/h 32.2 km/h 86.2% 16.4 mm 5 W/m2
15:24 14.3 °C 12.4 °C 1016.3 hPa WNW 10.7 km/h 32.2 km/h 88% 17.6 mm 5 W/m2
15:29 14.5 °C 12.5 °C 1016.0 hPa WNW 10.5 km/h 19.3 km/h 88% 18.2 mm 5 W/m2
15:34 14.6 °C 12.5 °C 1015.9 hPa West 13 km/h 18.5 km/h 87.2% 18.2 mm 5 W/m2
15:39 14.7 °C 12.8 °C 1016.0 hPa West 20.6 km/h 41.8 km/h 88% 18.6 mm 7 W/m2
15:44 15 °C 13.5 °C 1016.1 hPa West 24 km/h 42.6 km/h 90.3% 19.4 mm 9 W/m2
15:49 15.1 °C 13.7 °C 1016.5 hPa West 18.9 km/h 41.8 km/h 91% 19.8 mm 9 W/m2
15:54 15.3 °C 13.9 °C 1016.5 hPa WNW 15.6 km/h 27.4 km/h 91.5% 19.8 mm 9 W/m2
15:59 15.3 °C 14 °C 1016.4 hPa WNW 16.8 km/h 25.9 km/h 92% 19.8 mm 11 W/m2
16:04 15.3 °C 14.1 °C 1016.4 hPa WNW 20.5 km/h 33.8 km/h 92% 19.8 mm 9 W/m2
16:09 15.3 °C 13.9 °C 1016.5 hPa WNW 18.4 km/h 33.8 km/h 91.7% 19.4 mm 11 W/m2
16:14 15.2 °C 13.7 °C 1016.5 hPa WNW 16.6 km/h 29.6 km/h 91% 16.4 mm 14 W/m2
16:19 15 °C 13.6 °C 1016.4 hPa NW 17.2 km/h 29.6 km/h 91% 8.4 mm 23 W/m2
16:24 14.9 °C 13.5 °C 1016.4 hPa NW 13.2 km/h 29 km/h 91% 4.0 mm 28 W/m2
16:29 14.8 °C 13.4 °C 1016.5 hPa WNW 12.7 km/h 22.5 km/h 91% 2.8 mm 39 W/m2
16:34 14.8 °C 13.4 °C 1016.4 hPa WNW 8.6 km/h 20.9 km/h 91% 2.4 mm 47 W/m2
16:39 14.8 °C 13.5 °C 1016.4 hPa WNW 7.5 km/h 19.3 km/h 91.6% 2.4 mm 56 W/m2
16:44 14.9 °C 13.6 °C 1016.4 hPa WNW 9.3 km/h 16.7 km/h 91.9% 1.8 mm 69 W/m2
16:49 14.9 °C 13.4 °C 1016.4 hPa WNW 11 km/h 20.9 km/h 91% 1.2 mm 84 W/m2
16:54 14.9 °C 13.4 °C 1016.4 hPa WNW 10 km/h 20.9 km/h 90.3% 0.8 mm 97 W/m2
16:59 15 °C 13.4 °C 1016.4 hPa WNW 9.3 km/h 20.9 km/h 90% 0.8 mm 111 W/m2
17:04 15.2 °C 13.6 °C 1016.4 hPa WNW 7.7 km/h 14.5 km/h 90% 0.8 mm 123 W/m2
17:09 15.3 °C 13.7 °C 1016.4 hPa WNW 6.9 km/h 11.3 km/h 90% 0.8 mm 132 W/m2
17:14 15.4 °C 13.8 °C 1016.4 hPa WNW 7 km/h 11.3 km/h 90% 0.6 mm 135 W/m2
17:19 15.5 °C 13.9 °C 1016.3 hPa WNW 6 km/h 11.3 km/h 90% 0.0 mm 151 W/m2
17:24 15.6 °C 14 °C 1016.1 hPa WNW 6.5 km/h 13 km/h 89.8% 0.0 mm 158 W/m2
17:29 15.8 °C 14.2 °C 1015.9 hPa WNW 4.9 km/h 12.9 km/h 89.9% 0.0 mm 167 W/m2
17:34 16 °C 14.3 °C 1016.0 hPa West 6.4 km/h 13 km/h 89.8% 0.0 mm 186 W/m2
17:39 16 °C 14.2 °C 1016.0 hPa WNW 7.6 km/h 13 km/h 89% 0.0 mm 211 W/m2
17:44 16.3 °C 14.4 °C 1016.0 hPa WNW 7.1 km/h 13 km/h 88.7% 0.0 mm 234 W/m2
17:49 16.4 °C 14.4 °C 1015.8 hPa WNW 8.5 km/h 14.8 km/h 87.7% 0.0 mm 251 W/m2
17:54 16.6 °C 14.4 °C 1015.6 hPa WNW 6.9 km/h 14.5 km/h 87% 0.0 mm 264 W/m2
17:59 16.7 °C 14.6 °C 1015.5 hPa WNW 8 km/h 14.8 km/h 87% 0.0 mm 318 W/m2
18:04 17 °C 14.8 °C 1015.4 hPa WNW 4.9 km/h 14.5 km/h 87% 0.0 mm 364 W/m2
18:09 17.2 °C 14.8 °C 1015.5 hPa West 5.6 km/h 9.7 km/h 85.5% 0.0 mm 371 W/m2
18:14 17.5 °C 14.9 °C 1015.6 hPa WNW 5.6 km/h 11.3 km/h 84.8% 0.0 mm 403 W/m2
18:19 17.7 °C 14.9 °C 1015.6 hPa WNW 5.4 km/h 11.3 km/h 83.3% 0.0 mm 341 W/m2
18:24 17.8 °C 14.9 °C 1015.6 hPa NW 6.1 km/h 12.9 km/h 83.1% 0.0 mm 309 W/m2
18:29 17.7 °C 15 °C 1015.6 hPa NW 6.9 km/h 13 km/h 84% 0.0 mm 269 W/m2
18:34 17.6 °C 15 °C 1015.8 hPa NW 4.7 km/h 12.9 km/h 84.3% 0.0 mm 364 W/m2
18:39 17.7 °C 14.8 °C 1015.8 hPa NW 4.1 km/h 8 km/h 83.5% 0.0 mm 360 W/m2
18:44 17.8 °C 14.8 °C 1015.8 hPa NW 5.8 km/h 11.3 km/h 83.2% 0.0 mm 285 W/m2
18:49 17.6 °C 14.8 °C 1015.7 hPa NNW 7.4 km/h 11.3 km/h 83.5% 0.0 mm 135 W/m2
18:54 17.4 °C 14.7 °C 1015.7 hPa NNW 7.2 km/h 14.8 km/h 84.5% 0.0 mm 148 W/m2
18:59 17.1 °C 14.7 °C 1015.6 hPa NW 5.5 km/h 14.5 km/h 85.5% 0.0 mm 220 W/m2
19:04 17.2 °C 14.7 °C 1015.6 hPa NW 6.7 km/h 11.3 km/h 85.2% 0.0 mm 258 W/m2
19:09 17.4 °C 14.9 °C 1015.5 hPa NNW 8 km/h 13 km/h 85.6% 0.0 mm 250 W/m2
19:14 17.4 °C 15 °C 1015.4 hPa NNW 7.3 km/h 13 km/h 85.5% 0.0 mm 241 W/m2
19:19 17.4 °C 15 °C 1015.4 hPa NW 5.7 km/h 12.9 km/h 85.7% 0.0 mm 218 W/m2
19:24 17.3 °C 14.7 °C 1015.4 hPa NW 6.1 km/h 11.3 km/h 84.5% 0.0 mm 200 W/m2
19:29 17.4 °C 14.7 °C 1015.4 hPa NW 5.6 km/h 11.3 km/h 84% 0.0 mm 186 W/m2
19:34 17.4 °C 14.6 °C 1015.4 hPa NW 7.3 km/h 11.3 km/h 83.7% 0.0 mm 167 W/m2
19:39 17.4 °C 14.7 °C 1015.5 hPa NW 2.6 km/h 11.3 km/h 84.2% 0.0 mm 149 W/m2
19:44 17.3 °C 14.8 °C 1015.5 hPa NNW 4.5 km/h 8 km/h 85% 0.0 mm 130 W/m2
19:49 17.2 °C 14.8 °C 1015.5 hPa NNW 4.2 km/h 8 km/h 86% 0.0 mm 109 W/m2
19:54 17.1 °C 14.7 °C 1015.6 hPa NW 4 km/h 8 km/h 85.9% 0.0 mm 93 W/m2
19:59 17.1 °C 14.5 °C 1015.6 hPa NNW 4.5 km/h 8 km/h 85% 0.0 mm 37 W/m2
20:04 16.9 °C 14.3 °C 1015.6 hPa NW 6.5 km/h 9.7 km/h 84.8% 0.0 mm 33 W/m2
20:09 16.9 °C 14.2 °C 1015.6 hPa NNW 4.4 km/h 9.7 km/h 84.1% 0.0 mm 30 W/m2
20:14 16.8 °C 14.4 °C 1015.6 hPa NNW 4.1 km/h 8 km/h 85.6% 0.0 mm 26 W/m2
20:19 16.6 °C 14.3 °C 1015.6 hPa NW 2.8 km/h 8 km/h 86% 0.0 mm 25 W/m2
20:24 16.5 °C 14.2 °C 1015.6 hPa NW 2.8 km/h 6.4 km/h 86% 0.0 mm 21 W/m2
20:29 16.4 °C 14.1 °C 1015.7 hPa NNW 3.6 km/h 6.4 km/h 86.3% 0.0 mm 18 W/m2
20:34 16.3 °C 14.1 °C 1015.7 hPa NNW 3 km/h 6.4 km/h 87% 0.0 mm 14 W/m2
20:39 16.2 °C 14 °C 1015.8 hPa NW 1.5 km/h 6.4 km/h 87% 0.0 mm 11 W/m2
20:44 16 °C 13.8 °C 1015.8 hPa West 2.5 km/h 5.6 km/h 87% 0.0 mm 7 W/m2
20:49 15.9 °C 13.8 °C 1015.9 hPa WNW 1.5 km/h 4.8 km/h 87.9% 0.0 mm 5 W/m2
20:54 15.7 °C 13.8 °C 1016.0 hPa WNW 1.6 km/h 3.7 km/h 88.6% 0.0 mm 0 W/m2
20:59 15.6 °C 13.7 °C 1016.0 hPa WNW 2.3 km/h 3.7 km/h 89% 0.0 mm 0 W/m2
21:04 15.5 °C 13.7 °C 1016.0 hPa NW 3.1 km/h 5.6 km/h 89.3% 0.0 mm 0 W/m2
Stazione Meteorologica MeteoMincio Rivalta s/M (MN)
Con i complimenti di Weather Underground - 2 mb


METEO PILLOLE
La più ampia escursione termica annua
Verkhojansk - Russia
L'escursione termica va da -70°C a +36.6°C nel corso di un anno.

Do NOT follow this link or you will be banned from the site!